createdAt,value
2022-10-31T00:01:36.892Z,1.23
2022-10-31T00:04:06.912Z,1.25
2022-10-31T00:06:37.290Z,1.40
2022-10-31T00:09:11.329Z,1.55
2022-10-31T00:11:45.184Z,1.70
2022-10-31T00:14:14.340Z,2.13
2022-10-31T00:16:43.955Z,1.67
2022-10-31T00:19:13.048Z,2.33
2022-10-31T00:21:43.356Z,1.42
2022-10-31T00:24:14.473Z,1.80
2022-10-31T00:26:43.296Z,1.48
2022-10-31T00:29:14.002Z,2.47
2022-10-31T00:31:43.210Z,1.67
2022-10-31T00:34:12.140Z,2.03
2022-10-31T00:36:41.227Z,1.38
2022-10-31T00:39:15.985Z,1.90
2022-10-31T00:41:44.716Z,1.45
2022-10-31T00:44:15.304Z,1.80
2022-10-31T00:46:44.418Z,1.60
2022-10-31T00:49:13.419Z,1.45
2022-10-31T00:51:42.707Z,1.42
2022-10-31T00:54:12.079Z,1.80
2022-10-31T00:56:42.602Z,1.80
2022-10-31T00:59:11.576Z,2.45
2022-10-31T01:01:40.752Z,1.60
2022-10-31T01:04:10.019Z,1.55
2022-10-31T01:06:39.161Z,1.30
2022-10-31T01:09:08.394Z,1.40
2022-10-31T01:11:37.830Z,2.20
2022-10-31T01:14:11.698Z,1.50
2022-10-31T01:16:41.588Z,1.85
2022-10-31T01:19:11.217Z,1.52
2022-10-31T01:21:42.296Z,1.88
2022-10-31T01:24:11.396Z,1.70
2022-10-31T01:26:41.280Z,2.13
2022-10-31T01:29:15.211Z,1.85
2022-10-31T01:31:44.024Z,1.65
2022-10-31T01:34:15.771Z,1.77
2022-10-31T01:36:46.007Z,1.83
2022-10-31T01:39:17.014Z,1.48
2022-10-31T01:41:48.987Z,1.70
2022-10-31T01:44:53.686Z,1.55
2022-10-31T01:47:43.569Z,1.42
2022-10-31T01:50:17.600Z,1.35
2022-10-31T01:52:49.746Z,1.60
2022-10-31T01:55:26.336Z,1.45
2022-10-31T01:58:02.656Z,2.03
2022-10-31T02:00:33.543Z,1.60
2022-10-31T02:03:02.992Z,1.98
2022-10-31T02:05:33.015Z,1.58
2022-10-31T02:08:16.662Z,1.15
2022-10-31T02:10:46.666Z,1.42
2022-10-31T02:13:15.958Z,1.70
2022-10-31T02:15:52.599Z,1.30
2022-10-31T02:18:22.801Z,2.22
2022-10-31T02:21:01.020Z,1.60
2022-10-31T02:24:05.798Z,1.17
2022-10-31T02:26:52.201Z,1.50
2022-10-31T02:30:06.021Z,1.52
2022-10-31T02:32:53.967Z,1.50
2022-10-31T02:35:35.345Z,1.63
2022-10-31T02:38:10.805Z,1.83
2022-10-31T02:40:51.948Z,1.60
2022-10-31T02:43:42.332Z,1.27
2022-10-31T02:46:17.103Z,1.35
2022-10-31T02:48:50.192Z,1.30
2022-10-31T02:51:19.785Z,1.88
2022-10-31T02:53:50.426Z,1.60
2022-10-31T02:56:21.441Z,1.98
2022-10-31T02:58:54.041Z,1.70
2022-10-31T03:01:57.274Z,1.48
2022-10-31T03:04:50.763Z,1.55
2022-10-31T03:07:30.875Z,1.33
2022-10-31T03:10:13.876Z,1.52
2022-10-31T03:12:52.096Z,1.58
2022-10-31T03:15:27.066Z,1.65
2022-10-31T03:18:01.551Z,1.42
2022-10-31T03:20:37.815Z,1.30
2022-10-31T03:23:10.650Z,1.08
2022-10-31T03:25:41.676Z,1.07
2022-10-31T03:28:14.593Z,1.20
2022-10-31T03:30:46.619Z,0.77
2022-10-31T03:33:20.563Z,0.77
2022-10-31T03:35:55.347Z,0.95
2022-10-31T03:38:25.142Z,0.80
2022-10-31T03:40:58.353Z,0.60
2022-10-31T03:43:33.475Z,0.85
2022-10-31T03:46:02.448Z,0.52
2022-10-31T03:48:31.653Z,0.50
2022-10-31T03:51:10.339Z,0.80
2022-10-31T03:53:47.142Z,0.85
2022-10-31T03:56:25.056Z,0.70
2022-10-31T03:59:01.205Z,0.50
2022-10-31T04:01:34.512Z,0.75
2022-10-31T04:04:05.642Z,0.57
2022-10-31T04:06:38.983Z,0.80
2022-10-31T04:09:11.484Z,0.90
2022-10-31T04:11:46.748Z,0.70
2022-10-31T04:14:52.776Z,0.60
2022-10-31T04:17:27.846Z,0.90
2022-10-31T04:19:57.908Z,0.60
2022-10-31T04:22:28.599Z,0.52
2022-10-31T04:24:57.546Z,0.60
2022-10-31T04:27:26.442Z,0.55
2022-10-31T04:29:55.692Z,0.90
2022-10-31T04:32:24.963Z,0.60
2022-10-31T04:34:55.565Z,0.63
2022-10-31T04:37:28.846Z,0.55
2022-10-31T04:39:58.358Z,0.50
2022-10-31T04:42:47.568Z,0.70
2022-10-31T04:45:21.303Z,0.90
2022-10-31T04:47:53.932Z,0.60
2022-10-31T04:50:23.135Z,1.00
2022-10-31T04:52:54.485Z,0.70
2022-10-31T04:55:28.581Z,0.73
2022-10-31T04:58:22.016Z,0.55
2022-10-31T05:00:55.461Z,0.60
2022-10-31T05:03:24.776Z,0.95
2022-10-31T05:05:53.840Z,0.55
2022-10-31T05:08:24.472Z,0.60
2022-10-31T05:10:55.173Z,0.98
2022-10-31T05:13:29.393Z,0.52
2022-10-31T05:16:04.378Z,0.60
2022-10-31T05:19:01.225Z,0.70
2022-10-31T05:22:08.747Z,0.60
2022-10-31T05:24:42.142Z,0.60
2022-10-31T05:27:13.762Z,0.50
2022-10-31T05:29:43.651Z,0.70
2022-10-31T05:32:12.700Z,0.75
2022-10-31T05:38:21.416Z,0.70
2022-10-31T05:40:52.041Z,0.68
2022-10-31T05:43:21.180Z,0.57
2022-10-31T05:45:54.433Z,0.60
2022-10-31T05:48:43.345Z,0.85
2022-10-31T05:51:35.432Z,0.70
2022-10-31T05:54:08.821Z,0.80
2022-10-31T05:56:44.359Z,0.68
2022-10-31T05:59:13.484Z,0.77
2022-10-31T06:01:44.500Z,0.60
2022-10-31T15:53:20.584Z,1.30
2022-10-31T15:55:53.011Z,1.30
2022-10-31T15:58:23.535Z,1.23
2022-10-31T16:01:03.699Z,1.60
2022-10-31T16:03:33.785Z,1.10
2022-10-31T16:06:05.837Z,1.00
2022-10-31T16:08:37.991Z,1.30
2022-10-31T16:11:20.746Z,1.42
2022-10-31T16:14:01.074Z,1.00
2022-10-31T16:16:35.988Z,1.20
2022-10-31T16:19:09.718Z,1.33
2022-10-31T16:21:40.353Z,1.50
2022-10-31T16:24:20.737Z,1.35
2022-10-31T16:26:51.578Z,1.40
2022-10-31T16:29:29.702Z,1.55
2022-10-31T16:31:59.220Z,1.50
2022-10-31T16:34:28.329Z,1.42
2022-10-31T16:36:57.113Z,1.48
2022-10-31T16:39:27.378Z,1.40
2022-10-31T16:41:58.430Z,1.75
2022-10-31T16:44:28.545Z,1.25
2022-10-31T16:47:11.628Z,1.35
2022-10-31T16:49:40.429Z,1.40
2022-10-31T16:52:09.367Z,1.20
2022-10-31T16:54:40.198Z,1.45
2022-10-31T16:57:14.815Z,1.48
2022-10-31T16:59:44.259Z,1.27
2022-10-31T17:02:17.241Z,1.30
2022-10-31T17:04:47.614Z,1.30
2022-10-31T17:07:18.515Z,1.13
2022-10-31T17:09:48.813Z,1.65
2022-10-31T17:12:24.204Z,1.45
2022-10-31T17:14:54.357Z,1.50
2022-10-31T17:17:23.192Z,1.50
2022-10-31T17:19:52.080Z,1.90
2022-10-31T17:22:20.838Z,1.52
2022-10-31T17:24:51.043Z,1.75
2022-10-31T17:27:21.615Z,1.83
2022-10-31T17:29:50.322Z,1.70
2022-10-31T17:32:19.829Z,1.88
2022-10-31T17:34:54.390Z,1.88
2022-10-31T17:37:23.277Z,1.50
2022-10-31T17:39:53.506Z,1.80
2022-10-31T17:42:22.285Z,2.20
2022-10-31T17:44:51.086Z,1.90
2022-10-31T17:47:20.440Z,1.83
2022-10-31T17:49:49.456Z,1.63
2022-10-31T17:52:18.208Z,1.85
2022-10-31T17:54:48.175Z,1.77
2022-10-31T17:57:18.607Z,1.90
2022-10-31T17:59:47.787Z,1.90
2022-10-31T18:02:17.770Z,1.88
2022-10-31T18:04:47.121Z,2.58
2022-10-31T18:07:20.318Z,2.15
2022-10-31T18:09:51.933Z,1.83
2022-10-31T18:12:23.770Z,2.13
2022-10-31T18:14:53.509Z,2.70
2022-10-31T18:17:23.255Z,2.85
2022-10-31T18:19:53.331Z,2.15
2022-10-31T18:22:22.824Z,2.50
2022-10-31T18:24:52.029Z,2.45
2022-10-31T18:27:25.040Z,2.20
2022-10-31T18:29:54.634Z,2.28
2022-10-31T18:32:26.795Z,2.15
2022-10-31T18:34:56.416Z,2.13
2022-10-31T18:37:31.658Z,2.00
2022-10-31T18:40:01.889Z,2.05
2022-10-31T18:42:35.442Z,2.00
2022-10-31T18:45:12.019Z,1.60
2022-10-31T18:48:00.709Z,1.70
2022-10-31T18:50:32.624Z,1.58
2022-10-31T18:53:04.502Z,1.67
2022-10-31T18:55:33.903Z,1.90
2022-10-31T18:58:07.909Z,1.80
2022-10-31T19:00:38.698Z,2.08
2022-10-31T19:03:08.396Z,2.03
2022-10-31T19:05:37.676Z,2.22
2022-10-31T19:08:08.936Z,2.20
2022-10-31T19:10:40.180Z,2.05
2022-10-31T19:13:11.111Z,1.85
2022-10-31T19:15:40.399Z,2.65
2022-10-31T19:18:09.613Z,1.80
2022-10-31T19:20:41.503Z,2.05
2022-10-31T19:23:10.973Z,1.70
2022-10-31T19:25:41.423Z,2.03
2022-10-31T19:28:17.048Z,1.77
2022-10-31T19:30:56.503Z,2.00
2022-10-31T19:33:58.651Z,2.25
2022-10-31T19:36:29.651Z,2.22
2022-10-31T19:39:02.153Z,2.42
2022-10-31T19:41:32.816Z,2.28
2022-10-31T19:44:04.319Z,1.98
2022-10-31T19:46:52.742Z,1.85
2022-10-31T19:49:24.718Z,2.03
2022-10-31T19:51:54.483Z,1.95
2022-10-31T19:54:23.958Z,2.28
2022-10-31T19:56:53.227Z,2.05
2022-10-31T19:59:25.202Z,2.75
2022-10-31T20:01:56.684Z,1.80
2022-10-31T20:04:26.822Z,2.20
2022-10-31T20:06:58.740Z,2.30
2022-10-31T20:09:27.820Z,1.85
2022-10-31T20:12:00.473Z,2.10
2022-10-31T20:14:33.034Z,1.73
2022-10-31T20:17:04.018Z,2.00
2022-10-31T20:19:35.052Z,1.80
2022-10-31T20:22:20.753Z,2.00
2022-10-31T20:24:55.318Z,1.80
2022-10-31T20:27:25.384Z,2.25
2022-10-31T20:29:55.916Z,1.70
2022-10-31T20:32:25.225Z,1.85
2022-10-31T20:34:54.942Z,2.33
2022-10-31T20:37:23.919Z,2.03
2022-10-31T20:39:55.730Z,1.85
2022-10-31T20:42:26.431Z,2.00
2022-10-31T20:44:57.154Z,1.90
2022-10-31T20:47:26.959Z,2.13
2022-10-31T20:49:56.258Z,2.20
2022-10-31T20:52:25.557Z,1.92
2022-10-31T20:54:58.143Z,2.63
2022-10-31T20:57:30.568Z,2.00
2022-10-31T21:00:02.042Z,2.15
2022-10-31T21:02:33.885Z,1.52
2022-10-31T21:05:08.481Z,1.85
2022-10-31T21:07:41.547Z,2.03
2022-10-31T21:10:16.053Z,2.33
2022-10-31T21:12:48.049Z,2.05
2022-10-31T21:15:19.376Z,1.80
2022-10-31T21:17:54.007Z,2.13
2022-10-31T21:20:28.387Z,2.35
2022-10-31T21:23:01.402Z,1.80
2022-10-31T21:25:31.325Z,1.58
2022-10-31T21:28:03.549Z,1.70
2022-10-31T21:30:34.663Z,2.08
2022-10-31T21:33:07.780Z,1.80
2022-10-31T21:35:37.215Z,1.90
2022-10-31T21:38:07.053Z,2.03
2022-10-31T21:40:37.112Z,2.15
2022-10-31T21:43:06.849Z,2.10
2022-10-31T21:45:39.853Z,1.95
2022-10-31T21:48:13.726Z,2.22
2022-10-31T21:50:46.574Z,2.35
2022-10-31T21:53:36.695Z,2.10
2022-10-31T21:56:07.809Z,1.60
2022-10-31T21:58:38.578Z,1.80
2022-10-31T22:01:10.087Z,2.10
2022-10-31T22:03:39.944Z,1.88
2022-10-31T22:06:16.266Z,2.45
2022-10-31T22:08:46.060Z,2.40
2022-10-31T22:11:17.507Z,2.30
2022-10-31T22:13:48.996Z,2.53
2022-10-31T22:16:23.720Z,2.38
2022-10-31T22:18:54.648Z,3.42
2022-10-31T22:21:25.829Z,2.50
2022-10-31T22:23:56.568Z,2.33
2022-10-31T22:26:26.926Z,3.05
2022-10-31T22:28:59.603Z,2.45
2022-10-31T22:31:31.670Z,2.97
2022-10-31T22:34:00.823Z,2.88
2022-10-31T22:36:31.730Z,2.45
2022-10-31T22:39:02.232Z,2.40
2022-10-31T22:41:33.943Z,2.42
2022-10-31T22:44:05.326Z,3.33
2022-10-31T22:46:37.855Z,2.45
2022-10-31T22:49:09.439Z,2.95
2022-10-31T22:51:40.492Z,2.72
2022-10-31T22:54:13.619Z,2.25
2022-10-31T22:56:42.815Z,2.80
2022-10-31T22:59:13.915Z,2.42
2022-10-31T23:01:46.129Z,2.63
2022-10-31T23:04:16.913Z,2.30
2022-10-31T23:06:46.346Z,2.63
2022-10-31T23:09:17.253Z,2.70
2022-10-31T23:11:46.234Z,2.58
2022-10-31T23:14:18.780Z,2.53
2022-10-31T23:16:51.612Z,2.55
2022-10-31T23:19:22.803Z,2.73
2022-10-31T23:22:00.432Z,2.17
2022-10-31T23:24:33.795Z,2.10
2022-10-31T23:27:09.850Z,2.30
2022-10-31T23:29:43.408Z,2.22
2022-10-31T23:32:19.522Z,2.28
2022-10-31T23:34:50.259Z,2.13
2022-10-31T23:37:21.015Z,2.50
2022-10-31T23:39:50.521Z,2.20
2022-10-31T23:42:20.538Z,2.20
2022-10-31T23:44:49.963Z,2.03
2022-10-31T23:47:21.239Z,2.63
2022-10-31T23:49:50.996Z,2.13
2022-10-31T23:52:20.296Z,2.10
2022-10-31T23:54:49.251Z,1.88
2022-10-31T23:57:18.702Z,2.40
2022-10-31T23:59:48.020Z,2.50
